Christos Xliii — SVA7832 — position and weather

sailwx.info

Track history (hours):
 
Tides and Currents Weather Stations Pressure Air Temp Water Temp Dewpoint Dewpoint Depression Visibility Wind Speed Wind Dir Waves Ship Positions

Christos Xliii

Last reported at 2018-May-21 11:00 UTC. Time now 2018-May-21 11:18 UTC.
Position N 38°01' E 023°36'.

; draft 4.3 m.

Type: Tug. MMSI: 241532000.

Date/timePositionNaut miles runAvg speedWind from/ knotsBaromVisibWave heightAir tempDewpointWater temp
2018-May-21 11:00N 38°01' E 023°36'0 0.0
2018-May-21 10:30N 38°01' E 023°36'0 0.0
2018-May-21 10:00N 38°01' E 023°36'0 0.0
2018-May-21 09:30N 38°01' E 023°35'0 0.0
2018-May-21 09:00N 38°01' E 023°36'0 0.2
2018-May-21 08:30N 38°02' E 023°36'1 1.0
2018-May-21 08:00N 38°01' E 023°35'3 5.0
2018-May-21 07:30N 37°59' E 023°33'2 3.7
2018-May-21 07:00N 37°58' E 023°34'0 0.0
2018-May-21 06:30N 37°58' E 023°34'0 0.0
2018-May-21 06:00N 37°58' E 023°34'0 0.0
2018-May-21 05:30N 37°58' E 023°34'0 0.0
2018-May-21 05:00N 37°58' E 023°34'0 0.0
2018-May-21 04:30N 37°58' E 023°34'0 0.0
2018-May-21 04:00N 37°58' E 023°34'0 0.0
2018-May-20 18:21N 37°58' E 023°34'2 4.5
2018-May-20 18:00N 37°59' E 023°33'3 6.7
2018-May-20 17:30N 38°01' E 023°36'1 2.2
2018-May-20 17:00N 38°01' E 023°34'1 1.8
2018-May-20 16:30N 38°01' E 023°35'0 0.4
2018-May-20 16:00N 38°01' E 023°35'4 8.7
2018-May-20 15:30N 37°57' E 023°34'1 2.5
2018-May-20 15:00N 37°57' E 023°35'0 0.1
2018-May-20 14:30N 37°57' E 023°35'0 0.3
2018-May-20 14:00N 37°57' E 023°35'0 0.0
2018-May-20 13:30N 37°57' E 023°35'0 0.0
2018-May-20 13:00N 37°57' E 023°35'0 0.0
2018-May-20 12:30N 37°57' E 023°35'1 2.3
2018-May-20 12:00N 37°58' E 023°34'0 0.0
2018-May-20 11:30N 37°58' E 023°34'0 0.0
2018-May-20 11:00N 37°58' E 023°34'0 0.0
2018-May-19 17:26N 37°58' E 023°34'3 8.1
2018-May-19 17:00N 37°56' E 023°38'0 0.5
2018-May-19 16:30N 37°56' E 023°38'0 0.2
2018-May-19 16:00N 37°56' E 023°38'0 0.0
2018-May-19 15:30N 37°56' E 023°38'0 0.0
2018-May-19 15:00N 37°56' E 023°38'0 0.6
2018-May-19 14:30N 37°56' E 023°38'2 4.7
2018-May-19 14:00N 37°57' E 023°35'2 3.0
2018-May-19 13:30N 37°56' E 023°34'1 2.9
2018-May-19 13:00N 37°57' E 023°35'0 0.0
2018-May-19 12:29N 37°57' E 023°35'0 0.0
2018-May-19 12:00N 37°57' E 023°35'1 1.2
2018-May-19 11:30N 37°57' E 023°36'2 3.4
2018-May-19 11:00N 37°58' E 023°34'0 0.1
2018-May-19 10:30N 37°58' E 023°34'0 0.0
2018-May-19 10:00N 37°58' E 023°34'0 0.0
2018-May-19 09:30N 37°58' E 023°34'2 3.2
2018-May-19 09:00N 37°57' E 023°36'1 2.6
2018-May-19 08:30N 37°56' E 023°36'2 3.2
2018-May-19 08:00N 37°57' E 023°35'1 1.3
2018-May-19 07:30N 37°58' E 023°34'0 0.0
2018-May-19 07:00N 37°58' E 023°34'0 0.0
2018-May-19 06:30N 37°58' E 023°34'0 0.0
2018-May-19 06:00N 37°58' E 023°34'0 0.0
2018-May-19 05:30N 37°58' E 023°34'0 0.0
2018-May-19 05:00N 37°58' E 023°34'0 0.0
2018-May-19 04:30N 37°58' E 023°34'0 0.0
2018-May-19 04:00N 37°58' E 023°34'0 0.0
2018-May-18 09:04N 37°57' E 023°34'1 9.2
2018-May-18 09:01N 37°58' E 023°33'4 8.8
2018-May-18 08:30N 38°00' E 023°29'4 7.9
2018-May-18 08:01N 37°58' E 023°25'1 1.4
2018-May-18 07:30N 37°58' E 023°24'0 0.0
2018-May-18 07:01N 37°58' E 023°24'0 0.0
2018-May-18 06:30N 37°58' E 023°24'0 0.0
2018-May-18 06:01N 37°58' E 023°24'0 0.0
2018-May-18 05:31N 37°58' E 023°24'0 0.0
2018-May-18 05:01N 37°58' E 023°24'0 0.0
2018-May-18 04:31N 37°58' E 023°24'0 0.0
2018-May-18 04:00N 37°58' E 023°24'0 0.0
2018-May-18 03:31N 37°58' E 023°24'0 0.0
2018-May-18 03:00N 37°58' E 023°24'0 0.0
2018-May-18 02:31N 37°58' E 023°24'0 0.0
2018-May-18 02:01N 37°58' E 023°24'0 0.0
2018-May-18 01:31N 37°58' E 023°24'0 0.0
2018-May-18 01:00N 37°58' E 023°24'0 0.0
2018-May-18 00:30N 37°58' E 023°24'0 0.0
2018-May-18 00:01N 37°58' E 023°24'0 0.0
2018-May-17 23:30N 37°58' E 023°24'0 0.0
2018-May-17 23:01N 37°58' E 023°24'0 0.0
2018-May-17 22:31N 37°58' E 023°24'0 0.0
2018-May-17 22:01N 37°58' E 023°24'0 0.0
2018-May-17 21:31N 37°58' E 023°24'0 0.0
2018-May-17 21:01N 37°58' E 023°24'0 0.0
2018-May-17 20:30N 37°58' E 023°24'0 0.0
2018-May-17 20:01N 37°58' E 023°24'0 0.0
2018-May-17 19:30N 37°58' E 023°24'0 0.0
2018-May-17 19:01N 37°58' E 023°24'0 0.0
2018-May-17 18:31N 37°58' E 023°24'0 0.0
2018-May-17 18:01N 37°58' E 023°24'0 0.0
2018-May-17 17:30N 37°58' E 023°24'0 0.0
2018-May-17 17:01N 37°58' E 023°24'0 0.0
2018-May-17 16:31N 37°58' E 023°24'1 2.0
2018-May-17 16:01N 37°57' E 023°24'4 8.9
2018-May-17 15:31N 37°53' E 023°24'510.1
2018-May-17 15:01N 37°53' E 023°31'510.6
2018-May-17 14:31N 37°56' E 023°37'1 2.9
2018-May-17 14:00N 37°56' E 023°38'0 0.2
2018-May-17 13:31N 37°56' E 023°38'0 0.0
2018-May-17 13:01N 37°56' E 023°38'2 4.8
2018-May-17 12:31N 37°57' E 023°35'0 0.5
2018-May-17 12:00N 37°57' E 023°35'0 0.1
2018-May-17 11:31N 37°57' E 023°35'1 2.3
2018-May-17 11:00N 37°58' E 023°34'0 0.0
2018-May-17 10:31N 37°58' E 023°34'0 0.0
2018-May-17 10:01N 37°58' E 023°34'0 0.0
2018-May-17 09:30N 37°58' E 023°34'0 0.0
2018-May-17 09:01N 37°58' E 023°34'0 0.0
2018-May-17 08:31N 37°58' E 023°34'0 0.0
2018-May-17 08:00N 37°58' E 023°34'0 0.0
2018-May-17 07:31N 37°58' E 023°34'0 0.0
2018-May-17 07:01N 37°58' E 023°34'0 0.0
2018-May-17 06:31N 37°58' E 023°34'0 0.0
2018-May-17 06:01N 37°58' E 023°34'0 0.0
2018-May-17 05:31N 37°58' E 023°34'0 0.6
2018-May-17 05:01N 37°58' E 023°33'4 8.0
2018-May-17 04:31N 37°56' E 023°38'0 0.2
2018-May-17 04:01N 37°56' E 023°38'0 0.6
2018-May-17 03:30N 37°56' E 023°38'2 3.0
2018-May-17 03:01N 37°56' E 023°36'1 2.3
2018-May-17 02:31N 37°57' E 023°36'0 0.0
2018-May-17 02:00N 37°57' E 023°36'0 0.0
2018-May-17 01:31N 37°57' E 023°36'0 0.0
2018-May-17 01:01N 37°57' E 023°36'0 0.0
2018-May-17 00:30N 37°57' E 023°36'0 0.0
2018-May-17 00:01N 37°57' E 023°36'0 0.0
2018-May-16 23:31N 37°57' E 023°36'1 1.1
2018-May-16 23:01N 37°57' E 023°35'0 0.4
2018-May-16 22:31N 37°57' E 023°35'0 0.6
2018-May-16 22:01N 37°57' E 023°35'2 4.5
2018-May-16 21:31N 37°58' E 023°33'4 8.6
2018-May-16 21:01N 38°02' E 023°31'1 1.8
2018-May-16 20:31N 38°01' E 023°31'2 3.6
2018-May-16 20:01N 38°02' E 023°32'0 0.0
2018-May-16 19:30N 38°02' E 023°32'0 0.0
2018-May-16 19:01N 38°02' E 023°32'0 0.0
2018-May-16 18:31N 38°02' E 023°32'0 0.0
2018-May-16 18:01N 38°02' E 023°32'0 0.0
2018-May-16 17:30N 38°02' E 023°32'0 0.0
2018-May-16 17:00N 38°02' E 023°32'0 0.0
2018-May-16 16:31N 38°02' E 023°32'0 0.0
2018-May-16 16:00N 38°02' E 023°32'0 0.2
2018-May-16 15:31N 38°02' E 023°32'5 9.2
2018-May-16 15:01N 37°57' E 023°33'2 3.1
2018-May-16 14:30N 37°57' E 023°35'2 3.6
2018-May-16 14:00N 37°55' E 023°35'1 2.8
2018-May-16 13:30N 37°57' E 023°35'1 1.0
2018-May-16 13:00N 37°57' E 023°36'0 0.0
2018-May-16 12:30N 37°57' E 023°36'0 0.0
2018-May-16 12:00N 37°57' E 023°36'0 0.0
2018-May-16 11:31N 37°57' E 023°36'0 0.0
2018-May-16 11:01N 37°57' E 023°36'0 0.0
2018-May-16 10:31N 37°57' E 023°36'0 0.3
2018-May-16 10:01N 37°57' E 023°36'2 3.3
2018-May-16 09:31N 37°58' E 023°34'0 0.0
2018-May-16 09:01N 37°58' E 023°34'0 0.0
2018-May-16 08:31N 37°58' E 023°34'0 0.0
2018-May-16 08:01N 37°58' E 023°34'0 0.3
2018-May-16 07:30N 37°57' E 023°34'0 0.3
2018-May-16 07:01N 37°58' E 023°34'0 0.0
2018-May-16 06:30N 37°58' E 023°34'0 0.0
2018-May-16 06:01N 37°58' E 023°34'0 0.0
2018-May-16 05:31N 37°58' E 023°34'0 0.0
2018-May-16 05:01N 37°58' E 023°34'0 0.0
2018-May-16 04:31N 37°58' E 023°34'0 0.0
2018-May-16 04:01N 37°58' E 023°34'0 0.0
2018-May-15 07:04N 37°58' E 023°34'0 0.0
2018-May-15 07:01N 37°58' E 023°34'0 0.6
2018-May-15 06:30N 37°58' E 023°33'0 0.0
2018-May-15 06:00N 37°58' E 023°33'0 0.0
2018-May-15 05:30N 37°58' E 023°33'0 0.0
2018-May-15 05:01N 37°58' E 023°33'0 0.0
2018-May-15 04:31N 37°58' E 023°33'0 0.7
2018-May-15 04:00N 37°57' E 023°34'1 2.7
2018-May-15 03:31N 37°57' E 023°35'0 0.1
2018-May-15 03:01N 37°57' E 023°35'0 0.0
2018-May-15 02:31N 37°57' E 023°35'2 4.4
2018-May-15 02:01N 37°58' E 023°33'4 8.2
2018-May-15 01:31N 38°01' E 023°35'0 0.0
2018-May-15 01:01N 38°01' E 023°35'0 0.0
2018-May-15 00:31N 38°01' E 023°35'0 0.0
2018-May-15 00:01N 38°01' E 023°35'0 0.0
2018-May-14 23:31N 38°01' E 023°35'0 0.0
2018-May-14 23:00N 38°01' E 023°35'0 0.0
2018-May-14 22:31N 38°01' E 023°35'0 0.0
2018-May-14 22:01N 38°01' E 023°35'0 0.0
2018-May-14 21:31N 38°01' E 023°35'0 0.0
2018-May-14 21:01N 38°01' E 023°35'0 0.0
2018-May-14 20:31N 38°01' E 023°35'0 0.0
2018-May-14 20:01N 38°01' E 023°35'0 0.0
2018-May-14 19:31N 38°01' E 023°35'0 0.0
2018-May-14 19:00N 38°01' E 023°35'0 0.0
2018-May-14 18:31N 38°01' E 023°35'0 0.0
2018-May-14 18:01N 38°01' E 023°35'0 0.0
2018-May-14 17:31N 38°01' E 023°35'0 0.0
2018-May-14 17:01N 38°01' E 023°35'4 7.1
2018-May-14 16:31N 38°01' E 023°31'510.6
2018-May-14 16:01N 37°59' E 023°25'2 3.7
2018-May-14 15:31N 37°58' E 023°23'0 0.3
2018-May-14 15:01N 37°58' E 023°23'0 0.4
2018-May-14 14:31N 37°58' E 023°23'0 0.3
2018-May-14 14:01N 37°58' E 023°23'1 1.8
2018-May-14 13:31N 37°58' E 023°24'3 7.0
2018-May-14 13:00N 38°00' E 023°27'5 9.5
2018-May-14 12:30N 38°01' E 023°33'2 4.3
2018-May-14 12:01N 38°01' E 023°36'2 3.6
2018-May-14 11:30N 38°01' E 023°34'0 0.9
2018-May-14 11:01N 38°00' E 023°33'2 4.8
2018-May-14 10:31N 37°58' E 023°33'0 0.9
2018-May-14 10:01N 37°58' E 023°33'0 0.0
2018-May-14 09:31N 37°58' E 023°33'0 0.0
2018-May-14 09:01N 37°58' E 023°33'0 0.0
2018-May-14 08:30N 37°58' E 023°33'0 0.0
2018-May-14 08:00N 37°58' E 023°33'0 0.0
2018-May-14 07:31N 37°58' E 023°33'0 0.0
2018-May-14 07:01N 37°58' E 023°33'0 0.0
2018-May-14 06:30N 37°58' E 023°33'0 0.0
2018-May-14 06:00N 37°58' E 023°33'1 1.9
2018-May-14 05:31N 37°57' E 023°34'1 1.4
2018-May-14 05:01N 37°57' E 023°35'3 5.1
2018-May-14 04:30N 37°55' E 023°35'1 1.9
2018-May-14 04:00N 37°56' E 023°35'2 3.8
2018-May-14 03:31N 37°57' E 023°36'2 3.8
2018-May-14 03:01N 37°58' E 023°33'  
2018-May-11 19:00N 37°57' E 023°34'4 7.8
2018-May-11 18:30N 37°54' E 023°32'5 9.6
2018-May-11 18:00N 37°52' E 023°26'5 9.8
2018-May-11 17:30N 37°56' E 023°23'2 4.2
2018-May-11 17:00N 37°58' E 023°23'1 2.3
2018-May-11 16:30N 37°58' E 023°24'0 0.0
2018-May-11 16:00N 37°58' E 023°24'0 0.0
2018-May-11 15:30N 37°58' E 023°24'2 3.8
2018-May-11 15:00N 37°60' E 023°26'510.1
2018-May-11 14:30N 38°01' E 023°32'3 6.3
2018-May-11 14:00N 37°58' E 023°33'0 0.0
2018-May-11 13:30N 37°58' E 023°33'0 0.0
2018-May-11 13:00N 37°58' E 023°33'0 0.0
2018-May-11 12:30N 37°58' E 023°33'0 0.0
2018-May-11 12:00N 37°58' E 023°33'0 0.0
2018-May-11 11:30N 37°58' E 023°33'0 0.0
2018-May-11 11:00N 37°58' E 023°33'  
Track history (hours):
 
Tides and Currents Weather Stations Pressure Air Temp Water Temp Dewpoint Dewpoint Depression Visibility Wind Speed Wind Dir Waves Ship Positions

Christos Xliii

Last reported at 2018-May-21 11:00 UTC. Time now 2018-May-21 11:18 UTC.
Position N 38°01' E 023°36'.

; draft 4.3 m.

Type: Tug. MMSI: 241532000.

Date/timePositionNaut miles runAvg speedWind from/ knotsBaromVisibWave heightAir tempDewpointWater temp
2018-May-21 11:00N 38°01' E 023°36'0 0.0
2018-May-21 10:30N 38°01' E 023°36'0 0.0
2018-May-21 10:00N 38°01' E 023°36'0 0.0
2018-May-21 09:30N 38°01' E 023°35'0 0.0
2018-May-21 09:00N 38°01' E 023°36'0 0.2
2018-May-21 08:30N 38°02' E 023°36'1 1.0
2018-May-21 08:00N 38°01' E 023°35'3 5.0
2018-May-21 07:30N 37°59' E 023°33'2 3.7
2018-May-21 07:00N 37°58' E 023°34'0 0.0
2018-May-21 06:30N 37°58' E 023°34'0 0.0
2018-May-21 06:00N 37°58' E 023°34'0 0.0
2018-May-21 05:30N 37°58' E 023°34'0 0.0
2018-May-21 05:00N 37°58' E 023°34'0 0.0
2018-May-21 04:30N 37°58' E 023°34'0 0.0
2018-May-21 04:00N 37°58' E 023°34'0 0.0
2018-May-20 18:21N 37°58' E 023°34'2 4.5
2018-May-20 18:00N 37°59' E 023°33'3 6.7
2018-May-20 17:30N 38°01' E 023°36'1 2.2
2018-May-20 17:00N 38°01' E 023°34'1 1.8
2018-May-20 16:30N 38°01' E 023°35'0 0.4
2018-May-20 16:00N 38°01' E 023°35'4 8.7
2018-May-20 15:30N 37°57' E 023°34'1 2.5
2018-May-20 15:00N 37°57' E 023°35'0 0.1
2018-May-20 14:30N 37°57' E 023°35'0 0.3
2018-May-20 14:00N 37°57' E 023°35'0 0.0
2018-May-20 13:30N 37°57' E 023°35'0 0.0
2018-May-20 13:00N 37°57' E 023°35'0 0.0
2018-May-20 12:30N 37°57' E 023°35'1 2.3
2018-May-20 12:00N 37°58' E 023°34'0 0.0
2018-May-20 11:30N 37°58' E 023°34'0 0.0
2018-May-20 11:00N 37°58' E 023°34'0 0.0
2018-May-19 17:26N 37°58' E 023°34'3 8.1
2018-May-19 17:00N 37°56' E 023°38'0 0.5
2018-May-19 16:30N 37°56' E 023°38'0 0.2
2018-May-19 16:00N 37°56' E 023°38'0 0.0
2018-May-19 15:30N 37°56' E 023°38'0 0.0
2018-May-19 15:00N 37°56' E 023°38'0 0.6
2018-May-19 14:30N 37°56' E 023°38'2 4.7
2018-May-19 14:00N 37°57' E 023°35'2 3.0
2018-May-19 13:30N 37°56' E 023°34'1 2.9
2018-May-19 13:00N 37°57' E 023°35'0 0.0
2018-May-19 12:29N 37°57' E 023°35'0 0.0
2018-May-19 12:00N 37°57' E 023°35'1 1.2
2018-May-19 11:30N 37°57' E 023°36'2 3.4
2018-May-19 11:00N 37°58' E 023°34'0 0.1
2018-May-19 10:30N 37°58' E 023°34'0 0.0
2018-May-19 10:00N 37°58' E 023°34'0 0.0
2018-May-19 09:30N 37°58' E 023°34'2 3.2
2018-May-19 09:00N 37°57' E 023°36'1 2.6
2018-May-19 08:30N 37°56' E 023°36'2 3.2
2018-May-19 08:00N 37°57' E 023°35'1 1.3
2018-May-19 07:30N 37°58' E 023°34'0 0.0
2018-May-19 07:00N 37°58' E 023°34'0 0.0
2018-May-19 06:30N 37°58' E 023°34'0 0.0
2018-May-19 06:00N 37°58' E 023°34'0 0.0
2018-May-19 05:30N 37°58' E 023°34'0 0.0
2018-May-19 05:00N 37°58' E 023°34'0 0.0
2018-May-19 04:30N 37°58' E 023°34'0 0.0
2018-May-19 04:00N 37°58' E 023°34'0 0.0
2018-May-18 09:04N 37°57' E 023°34'1 9.2
2018-May-18 09:01N 37°58' E 023°33'4 8.8
2018-May-18 08:30N 38°00' E 023°29'4 7.9
2018-May-18 08:01N 37°58' E 023°25'1 1.4
2018-May-18 07:30N 37°58' E 023°24'0 0.0
2018-May-18 07:01N 37°58' E 023°24'0 0.0
2018-May-18 06:30N 37°58' E 023°24'0 0.0
2018-May-18 06:01N 37°58' E 023°24'0 0.0
2018-May-18 05:31N 37°58' E 023°24'0 0.0
2018-May-18 05:01N 37°58' E 023°24'0 0.0
2018-May-18 04:31N 37°58' E 023°24'0 0.0
2018-May-18 04:00N 37°58' E 023°24'0 0.0
2018-May-18 03:31N 37°58' E 023°24'0 0.0
2018-May-18 03:00N 37°58' E 023°24'0 0.0
2018-May-18 02:31N 37°58' E 023°24'0 0.0
2018-May-18 02:01N 37°58' E 023°24'0 0.0
2018-May-18 01:31N 37°58' E 023°24'0 0.0
2018-May-18 01:00N 37°58' E 023°24'0 0.0
2018-May-18 00:30N 37°58' E 023°24'0 0.0
2018-May-18 00:01N 37°58' E 023°24'0 0.0
2018-May-17 23:30N 37°58' E 023°24'0 0.0
2018-May-17 23:01N 37°58' E 023°24'0 0.0
2018-May-17 22:31N 37°58' E 023°24'0 0.0
2018-May-17 22:01N 37°58' E 023°24'0 0.0
2018-May-17 21:31N 37°58' E 023°24'0 0.0
2018-May-17 21:01N 37°58' E 023°24'0 0.0
2018-May-17 20:30N 37°58' E 023°24'0 0.0
2018-May-17 20:01N 37°58' E 023°24'0 0.0
2018-May-17 19:30N 37°58' E 023°24'0 0.0
2018-May-17 19:01N 37°58' E 023°24'0 0.0
2018-May-17 18:31N 37°58' E 023°24'0 0.0
2018-May-17 18:01N 37°58' E 023°24'0 0.0
2018-May-17 17:30N 37°58' E 023°24'0 0.0
2018-May-17 17:01N 37°58' E 023°24'0 0.0
2018-May-17 16:31N 37°58' E 023°24'1 2.0
2018-May-17 16:01N 37°57' E 023°24'4 8.9
2018-May-17 15:31N 37°53' E 023°24'510.1
2018-May-17 15:01N 37°53' E 023°31'510.6
2018-May-17 14:31N 37°56' E 023°37'1 2.9
2018-May-17 14:00N 37°56' E 023°38'0 0.2
2018-May-17 13:31N 37°56' E 023°38'0 0.0
2018-May-17 13:01N 37°56' E 023°38'2 4.8
2018-May-17 12:31N 37°57' E 023°35'0 0.5
2018-May-17 12:00N 37°57' E 023°35'0 0.1
2018-May-17 11:31N 37°57' E 023°35'1 2.3
2018-May-17 11:00N 37°58' E 023°34'0 0.0
2018-May-17 10:31N 37°58' E 023°34'0 0.0
2018-May-17 10:01N 37°58' E 023°34'0 0.0
2018-May-17 09:30N 37°58' E 023°34'0 0.0
2018-May-17 09:01N 37°58' E 023°34'0 0.0
2018-May-17 08:31N 37°58' E 023°34'0 0.0
2018-May-17 08:00N 37°58' E 023°34'0 0.0
2018-May-17 07:31N 37°58' E 023°34'0 0.0
2018-May-17 07:01N 37°58' E 023°34'0 0.0
2018-May-17 06:31N 37°58' E 023°34'0 0.0
2018-May-17 06:01N 37°58' E 023°34'0 0.0
2018-May-17 05:31N 37°58' E 023°34'0 0.6
2018-May-17 05:01N 37°58' E 023°33'4 8.0
2018-May-17 04:31N 37°56' E 023°38'0 0.2
2018-May-17 04:01N 37°56' E 023°38'0 0.6
2018-May-17 03:30N 37°56' E 023°38'2 3.0
2018-May-17 03:01N 37°56' E 023°36'1 2.3
2018-May-17 02:31N 37°57' E 023°36'0 0.0
2018-May-17 02:00N 37°57' E 023°36'0 0.0
2018-May-17 01:31N 37°57' E 023°36'0 0.0
2018-May-17 01:01N 37°57' E 023°36'0 0.0
2018-May-17 00:30N 37°57' E 023°36'0 0.0
2018-May-17 00:01N 37°57' E 023°36'0 0.0
2018-May-16 23:31N 37°57' E 023°36'1 1.1
2018-May-16 23:01N 37°57' E 023°35'0 0.4
2018-May-16 22:31N 37°57' E 023°35'0 0.6
2018-May-16 22:01N 37°57' E 023°35'2 4.5
2018-May-16 21:31N 37°58' E 023°33'4 8.6
2018-May-16 21:01N 38°02' E 023°31'1 1.8
2018-May-16 20:31N 38°01' E 023°31'2 3.6
2018-May-16 20:01N 38°02' E 023°32'0 0.0
2018-May-16 19:30N 38°02' E 023°32'0 0.0
2018-May-16 19:01N 38°02' E 023°32'0 0.0
2018-May-16 18:31N 38°02' E 023°32'0 0.0
2018-May-16 18:01N 38°02' E 023°32'0 0.0
2018-May-16 17:30N 38°02' E 023°32'0 0.0
2018-May-16 17:00N 38°02' E 023°32'0 0.0
2018-May-16 16:31N 38°02' E 023°32'0 0.0
2018-May-16 16:00N 38°02' E 023°32'0 0.2
2018-May-16 15:31N 38°02' E 023°32'5 9.2
2018-May-16 15:01N 37°57' E 023°33'2 3.1
2018-May-16 14:30N 37°57' E 023°35'2 3.6
2018-May-16 14:00N 37°55' E 023°35'1 2.8
2018-May-16 13:30N 37°57' E 023°35'1 1.0
2018-May-16 13:00N 37°57' E 023°36'0 0.0
2018-May-16 12:30N 37°57' E 023°36'0 0.0
2018-May-16 12:00N 37°57' E 023°36'0 0.0
2018-May-16 11:31N 37°57' E 023°36'0 0.0
2018-May-16 11:01N 37°57' E 023°36'0 0.0
2018-May-16 10:31N 37°57' E 023°36'0 0.3
2018-May-16 10:01N 37°57' E 023°36'2 3.3
2018-May-16 09:31N 37°58' E 023°34'0 0.0
2018-May-16 09:01N 37°58' E 023°34'0 0.0
2018-May-16 08:31N 37°58' E 023°34'0 0.0
2018-May-16 08:01N 37°58' E 023°34'0 0.3
2018-May-16 07:30N 37°57' E 023°34'0 0.3
2018-May-16 07:01N 37°58' E 023°34'0 0.0
2018-May-16 06:30N 37°58' E 023°34'0 0.0
2018-May-16 06:01N 37°58' E 023°34'0 0.0
2018-May-16 05:31N 37°58' E 023°34'0 0.0
2018-May-16 05:01N 37°58' E 023°34'0 0.0
2018-May-16 04:31N 37°58' E 023°34'0 0.0
2018-May-16 04:01N 37°58' E 023°34'0 0.0
2018-May-15 07:04N 37°58' E 023°34'0 0.0
2018-May-15 07:01N 37°58' E 023°34'0 0.6
2018-May-15 06:30N 37°58' E 023°33'0 0.0
2018-May-15 06:00N 37°58' E 023°33'0 0.0
2018-May-15 05:30N 37°58' E 023°33'0 0.0
2018-May-15 05:01N 37°58' E 023°33'0 0.0
2018-May-15 04:31N 37°58' E 023°33'0 0.7
2018-May-15 04:00N 37°57' E 023°34'1 2.7
2018-May-15 03:31N 37°57' E 023°35'0 0.1
2018-May-15 03:01N 37°57' E 023°35'0 0.0
2018-May-15 02:31N 37°57' E 023°35'2 4.4
2018-May-15 02:01N 37°58' E 023°33'4 8.2
2018-May-15 01:31N 38°01' E 023°35'0 0.0
2018-May-15 01:01N 38°01' E 023°35'0 0.0
2018-May-15 00:31N 38°01' E 023°35'0 0.0
2018-May-15 00:01N 38°01' E 023°35'0 0.0
2018-May-14 23:31N 38°01' E 023°35'0 0.0
2018-May-14 23:00N 38°01' E 023°35'0 0.0
2018-May-14 22:31N 38°01' E 023°35'0 0.0
2018-May-14 22:01N 38°01' E 023°35'0 0.0
2018-May-14 21:31N 38°01' E 023°35'0 0.0
2018-May-14 21:01N 38°01' E 023°35'0 0.0
2018-May-14 20:31N 38°01' E 023°35'0 0.0
2018-May-14 20:01N 38°01' E 023°35'0 0.0
2018-May-14 19:31N 38°01' E 023°35'0 0.0
2018-May-14 19:00N 38°01' E 023°35'0 0.0
2018-May-14 18:31N 38°01' E 023°35'0 0.0
2018-May-14 18:01N 38°01' E 023°35'0 0.0
2018-May-14 17:31N 38°01' E 023°35'0 0.0
2018-May-14 17:01N 38°01' E 023°35'4 7.1
2018-May-14 16:31N 38°01' E 023°31'510.6
2018-May-14 16:01N 37°59' E 023°25'2 3.7
2018-May-14 15:31N 37°58' E 023°23'0 0.3
2018-May-14 15:01N 37°58' E 023°23'0 0.4
2018-May-14 14:31N 37°58' E 023°23'0 0.3
2018-May-14 14:01N 37°58' E 023°23'1 1.8
2018-May-14 13:31N 37°58' E 023°24'3 7.0
2018-May-14 13:00N 38°00' E 023°27'5 9.5
2018-May-14 12:30N 38°01' E 023°33'2 4.3
2018-May-14 12:01N 38°01' E 023°36'2 3.6
2018-May-14 11:30N 38°01' E 023°34'0 0.9
2018-May-14 11:01N 38°00' E 023°33'2 4.8
2018-May-14 10:31N 37°58' E 023°33'0 0.9
2018-May-14 10:01N 37°58' E 023°33'0 0.0
2018-May-14 09:31N 37°58' E 023°33'0 0.0
2018-May-14 09:01N 37°58' E 023°33'0 0.0
2018-May-14 08:30N 37°58' E 023°33'0 0.0
2018-May-14 08:00N 37°58' E 023°33'0 0.0
2018-May-14 07:31N 37°58' E 023°33'0 0.0
2018-May-14 07:01N 37°58' E 023°33'0 0.0
2018-May-14 06:30N 37°58' E 023°33'0 0.0
2018-May-14 06:00N 37°58' E 023°33'1 1.9
2018-May-14 05:31N 37°57' E 023°34'1 1.4
2018-May-14 05:01N 37°57' E 023°35'3 5.1
2018-May-14 04:30N 37°55' E 023°35'1 1.9
2018-May-14 04:00N 37°56' E 023°35'2 3.8
2018-May-14 03:31N 37°57' E 023°36'2 3.8
2018-May-14 03:01N 37°58' E 023°33'  
2018-May-11 19:00N 37°57' E 023°34'4 7.8
2018-May-11 18:30N 37°54' E 023°32'5 9.6
2018-May-11 18:00N 37°52' E 023°26'5 9.8
2018-May-11 17:30N 37°56' E 023°23'2 4.2
2018-May-11 17:00N 37°58' E 023°23'1 2.3
2018-May-11 16:30N 37°58' E 023°24'0 0.0
2018-May-11 16:00N 37°58' E 023°24'0 0.0
2018-May-11 15:30N 37°58' E 023°24'2 3.8
2018-May-11 15:00N 37°60' E 023°26'510.1
2018-May-11 14:30N 38°01' E 023°32'3 6.3
2018-May-11 14:00N 37°58' E 023°33'0 0.0
2018-May-11 13:30N 37°58' E 023°33'0 0.0
2018-May-11 13:00N 37°58' E 023°33'0 0.0
2018-May-11 12:30N 37°58' E 023°33'0 0.0
2018-May-11 12:00N 37°58' E 023°33'0 0.0
2018-May-11 11:30N 37°58' E 023°33'0 0.0
2018-May-11 11:00N 37°58' E 023°33'  

Dump ship's entire track history